sensor_id;sensor_type;location;lat;lon;timestamp;temperature;humidity
8820;DHT22;4446;50.876;4.736;2023-11-22T00:02:16;4.20;99.90
8820;DHT22;4446;50.876;4.736;2023-11-22T00:04:43;4.20;99.90
8820;DHT22;4446;50.876;4.736;2023-11-22T00:07:09;4.20;99.90
8820;DHT22;4446;50.876;4.736;2023-11-22T00:09:36;4.20;99.90
8820;DHT22;4446;50.876;4.736;2023-11-22T00:12:04;4.20;99.90
8820;DHT22;4446;50.876;4.736;2023-11-22T00:14:31;4.40;99.90
8820;DHT22;4446;50.876;4.736;2023-11-22T00:17:00;4.50;99.90
8820;DHT22;4446;50.876;4.736;2023-11-22T00:19:27;4.60;99.90
8820;DHT22;4446;50.876;4.736;2023-11-22T00:21:54;4.80;99.90
8820;DHT22;4446;50.876;4.736;2023-11-22T00:24:21;5.00;99.90
8820;DHT22;4446;50.876;4.736;2023-11-22T00:26:48;5.10;99.90
8820;DHT22;4446;50.876;4.736;2023-11-22T00:29:15;5.10;99.90
8820;DHT22;4446;50.876;4.736;2023-11-22T00:31:42;5.20;99.90
8820;DHT22;4446;50.876;4.736;2023-11-22T00:34:11;5.20;99.90
8820;DHT22;4446;50.876;4.736;2023-11-22T00:36:38;5.30;99.90
8820;DHT22;4446;50.876;4.736;2023-11-22T00:39:06;5.30;99.90
8820;DHT22;4446;50.876;4.736;2023-11-22T00:41:35;5.30;99.90
8820;DHT22;4446;50.876;4.736;2023-11-22T00:44:02;5.30;99.90
8820;DHT22;4446;50.876;4.736;2023-11-22T00:46:29;5.40;99.90
8820;DHT22;4446;50.876;4.736;2023-11-22T00:48:56;5.40;99.90
8820;DHT22;4446;50.876;4.736;2023-11-22T00:51:24;5.40;99.90
8820;DHT22;4446;50.876;4.736;2023-11-22T00:53:51;5.40;99.90
8820;DHT22;4446;50.876;4.736;2023-11-22T00:56:18;5.40;99.90
8820;DHT22;4446;50.876;4.736;2023-11-22T00:58:45;5.30;99.90
8820;DHT22;4446;50.876;4.736;2023-11-22T01:01:15;5.30;99.90
8820;DHT22;4446;50.876;4.736;2023-11-22T01:03:42;5.30;99.90
8820;DHT22;4446;50.876;4.736;2023-11-22T01:06:09;5.30;99.90
8820;DHT22;4446;50.876;4.736;2023-11-22T01:08:37;5.30;99.90
8820;DHT22;4446;50.876;4.736;2023-11-22T01:11:04;5.30;99.90
8820;DHT22;4446;50.876;4.736;2023-11-22T01:13:33;5.30;99.90
8820;DHT22;4446;50.876;4.736;2023-11-22T01:16:06;5.30;99.90
8820;DHT22;4446;50.876;4.736;2023-11-22T01:18:33;5.30;99.90
8820;DHT22;4446;50.876;4.736;2023-11-22T01:21:00;5.30;99.90
8820;DHT22;4446;50.876;4.736;2023-11-22T01:23:27;5.30;99.90
8820;DHT22;4446;50.876;4.736;2023-11-22T01:25:55;5.30;99.90
8820;DHT22;4446;50.876;4.736;2023-11-22T01:28:22;5.30;99.90
8820;DHT22;4446;50.876;4.736;2023-11-22T01:30:49;5.40;99.90
8820;DHT22;4446;50.876;4.736;2023-11-22T01:33:16;5.40;99.90
8820;DHT22;4446;50.876;4.736;2023-11-22T01:35:43;5.30;99.90
8820;DHT22;4446;50.876;4.736;2023-11-22T01:38:10;5.30;99.90
8820;DHT22;4446;50.876;4.736;2023-11-22T01:40:43;5.30;99.90
8820;DHT22;4446;50.876;4.736;2023-11-22T01:43:14;5.30;99.90
8820;DHT22;4446;50.876;4.736;2023-11-22T01:45:42;5.40;99.90
8820;DHT22;4446;50.876;4.736;2023-11-22T01:48:10;5.30;99.90
8820;DHT22;4446;50.876;4.736;2023-11-22T01:50:38;5.30;99.90
8820;DHT22;4446;50.876;4.736;2023-11-22T01:53:06;5.30;99.90
8820;DHT22;4446;50.876;4.736;2023-11-22T01:55:34;5.30;99.90
8820;DHT22;4446;50.876;4.736;2023-11-22T01:58:01;5.30;99.90
8820;DHT22;4446;50.876;4.736;2023-11-22T02:03:14;5.20;99.90
8820;DHT22;4446;50.876;4.736;2023-11-22T02:05:41;5.30;99.90
8820;DHT22;4446;50.876;4.736;2023-11-22T02:08:09;5.30;99.90
8820;DHT22;4446;50.876;4.736;2023-11-22T02:10:36;5.20;99.90
8820;DHT22;4446;50.876;4.736;2023-11-22T02:13:03;5.20;99.90
8820;DHT22;4446;50.876;4.736;2023-11-22T02:15:34;5.20;99.90
8820;DHT22;4446;50.876;4.736;2023-11-22T02:18:02;5.20;99.90
8820;DHT22;4446;50.876;4.736;2023-11-22T02:20:29;5.20;99.90
8820;DHT22;4446;50.876;4.736;2023-11-22T02:22:56;5.30;99.90
8820;DHT22;4446;50.876;4.736;2023-11-22T02:25:25;5.20;99.90
8820;DHT22;4446;50.876;4.736;2023-11-22T02:27:52;5.20;99.90
8820;DHT22;4446;50.876;4.736;2023-11-22T02:30:18;5.20;99.90
8820;DHT22;4446;50.876;4.736;2023-11-22T02:32:47;5.10;99.90
8820;DHT22;4446;50.876;4.736;2023-11-22T02:35:14;5.10;99.90
8820;DHT22;4446;50.876;4.736;2023-11-22T02:37:41;5.10;99.90
8820;DHT22;4446;50.876;4.736;2023-11-22T02:40:16;5.20;99.90
8820;DHT22;4446;50.876;4.736;2023-11-22T02:42:46;5.20;99.90
8820;DHT22;4446;50.876;4.736;2023-11-22T02:45:13;5.10;99.90
8820;DHT22;4446;50.876;4.736;2023-11-22T02:47:40;5.20;99.90
8820;DHT22;4446;50.876;4.736;2023-11-22T02:50:12;5.10;99.90
8820;DHT22;4446;50.876;4.736;2023-11-22T02:52:39;5.20;99.90
8820;DHT22;4446;50.876;4.736;2023-11-22T02:55:07;5.10;99.90
8820;DHT22;4446;50.876;4.736;2023-11-22T02:57:35;5.20;99.90
8820;DHT22;4446;50.876;4.736;2023-11-22T03:00:04;5.20;99.90
8820;DHT22;4446;50.876;4.736;2023-11-22T03:02:32;5.30;99.90
8820;DHT22;4446;50.876;4.736;2023-11-22T03:04:59;5.20;99.90
8820;DHT22;4446;50.876;4.736;2023-11-22T03:07:26;5.20;99.90
8820;DHT22;4446;50.876;4.736;2023-11-22T03:09:53;5.30;99.90
8820;DHT22;4446;50.876;4.736;2023-11-22T03:12:21;5.30;99.90
8820;DHT22;4446;50.876;4.736;2023-11-22T03:14:48;5.20;99.90
8820;DHT22;4446;50.876;4.736;2023-11-22T03:17:17;5.20;99.90
8820;DHT22;4446;50.876;4.736;2023-11-22T03:19:44;5.10;99.90
8820;DHT22;4446;50.876;4.736;2023-11-22T03:22:12;5.20;99.90
8820;DHT22;4446;50.876;4.736;2023-11-22T03:24:38;5.00;99.90
8820;DHT22;4446;50.876;4.736;2023-11-22T03:27:05;4.90;99.90
8820;DHT22;4446;50.876;4.736;2023-11-22T03:29:32;4.80;99.90
8820;DHT22;4446;50.876;4.736;2023-11-22T03:32:00;4.50;99.90
8820;DHT22;4446;50.876;4.736;2023-11-22T03:34:29;4.30;99.90
8820;DHT22;4446;50.876;4.736;2023-11-22T03:36:55;4.10;99.90
8820;DHT22;4446;50.876;4.736;2023-11-22T03:39:23;4.00;99.90
8820;DHT22;4446;50.876;4.736;2023-11-22T03:41:49;3.80;99.90
8820;DHT22;4446;50.876;4.736;2023-11-22T03:44:16;3.70;99.90
8820;DHT22;4446;50.876;4.736;2023-11-22T03:46:44;3.50;99.90
8820;DHT22;4446;50.876;4.736;2023-11-22T03:49:11;3.40;99.90
8820;DHT22;4446;50.876;4.736;2023-11-22T03:51:40;3.40;99.90
8820;DHT22;4446;50.876;4.736;2023-11-22T03:54:07;3.30;99.90
8820;DHT22;4446;50.876;4.736;2023-11-22T03:56:35;3.20;99.90
8820;DHT22;4446;50.876;4.736;2023-11-22T03:59:02;3.30;99.90
8820;DHT22;4446;50.876;4.736;2023-11-22T04:01:29;3.20;99.90
8820;DHT22;4446;50.876;4.736;2023-11-22T04:03:56;3.30;99.90
8820;DHT22;4446;50.876;4.736;2023-11-22T04:06:23;3.20;99.90
8820;DHT22;4446;50.876;4.736;2023-11-22T04:08:52;3.30;99.90
8820;DHT22;4446;50.876;4.736;2023-11-22T04:11:19;3.30;99.90
8820;DHT22;4446;50.876;4.736;2023-11-22T04:13:47;3.30;99.90
8820;DHT22;4446;50.876;4.736;2023-11-22T04:16:14;3.30;99.90
8820;DHT22;4446;50.876;4.736;2023-11-22T04:18:43;3.30;99.90
8820;DHT22;4446;50.876;4.736;2023-11-22T04:21:10;3.20;99.90
8820;DHT22;4446;50.876;4.736;2023-11-22T04:23:37;3.20;99.90
8820;DHT22;4446;50.876;4.736;2023-11-22T04:26:05;3.30;99.90
8820;DHT22;4446;50.876;4.736;2023-11-22T04:28:32;3.40;99.90
8820;DHT22;4446;50.876;4.736;2023-11-22T04:31:00;3.50;99.90
8820;DHT22;4446;50.876;4.736;2023-11-22T04:33:27;3.70;99.90
8820;DHT22;4446;50.876;4.736;2023-11-22T04:35:54;3.80;99.90
8820;DHT22;4446;50.876;4.736;2023-11-22T04:38:21;3.90;99.90
8820;DHT22;4446;50.876;4.736;2023-11-22T04:40:48;4.00;99.90
8820;DHT22;4446;50.876;4.736;2023-11-22T04:43:17;4.10;99.90
8820;DHT22;4446;50.876;4.736;2023-11-22T04:45:43;4.30;99.90
8820;DHT22;4446;50.876;4.736;2023-11-22T04:48:10;4.40;99.90
8820;DHT22;4446;50.876;4.736;2023-11-22T04:50:40;4.40;99.90
8820;DHT22;4446;50.876;4.736;2023-11-22T04:53:08;4.40;99.90
8820;DHT22;4446;50.876;4.736;2023-11-22T04:55:35;4.40;99.90
8820;DHT22;4446;50.876;4.736;2023-11-22T04:58:02;4.40;99.90
8820;DHT22;4446;50.876;4.736;2023-11-22T05:00:30;4.30;99.90
8820;DHT22;4446;50.876;4.736;2023-11-22T05:02:57;4.30;99.90
8820;DHT22;4446;50.876;4.736;2023-11-22T05:05:24;4.30;99.90
8820;DHT22;4446;50.876;4.736;2023-11-22T05:07:51;4.30;99.90
8820;DHT22;4446;50.876;4.736;2023-11-22T05:10:19;4.20;99.90
8820;DHT22;4446;50.876;4.736;2023-11-22T05:12:46;4.20;99.90
8820;DHT22;4446;50.876;4.736;2023-11-22T05:15:13;4.20;99.90
8820;DHT22;4446;50.876;4.736;2023-11-22T05:17:42;4.20;99.90
8820;DHT22;4446;50.876;4.736;2023-11-22T05:20:09;4.20;99.90
8820;DHT22;4446;50.876;4.736;2023-11-22T05:22:36;4.20;99.90
8820;DHT22;4446;50.876;4.736;2023-11-22T05:25:04;4.20;99.90
8820;DHT22;4446;50.876;4.736;2023-11-22T05:27:32;4.20;99.90
8820;DHT22;4446;50.876;4.736;2023-11-22T05:29:59;4.20;99.90
8820;DHT22;4446;50.876;4.736;2023-11-22T05:32:27;4.10;99.90
8820;DHT22;4446;50.876;4.736;2023-11-22T05:34:55;4.20;99.90
8820;DHT22;4446;50.876;4.736;2023-11-22T05:37:22;4.20;99.90
8820;DHT22;4446;50.876;4.736;2023-11-22T05:39:49;4.20;99.90
8820;DHT22;4446;50.876;4.736;2023-11-22T05:42:16;4.20;99.90
8820;DHT22;4446;50.876;4.736;2023-11-22T05:44:43;4.20;99.90
8820;DHT22;4446;50.876;4.736;2023-11-22T05:47:10;4.20;99.90
8820;DHT22;4446;50.876;4.736;2023-11-22T05:49:38;4.20;99.90
8820;DHT22;4446;50.876;4.736;2023-11-22T05:52:07;4.20;99.90
8820;DHT22;4446;50.876;4.736;2023-11-22T05:54:34;4.20;99.90
8820;DHT22;4446;50.876;4.736;2023-11-22T05:57:01;4.20;99.90
8820;DHT22;4446;50.876;4.736;2023-11-22T05:59:28;4.20;99.90
8820;DHT22;4446;50.876;4.736;2023-11-22T06:01:55;4.20;99.90
8820;DHT22;4446;50.876;4.736;2023-11-22T06:04:22;4.20;99.90
8820;DHT22;4446;50.876;4.736;2023-11-22T06:06:49;4.20;99.90
8820;DHT22;4446;50.876;4.736;2023-11-22T06:09:18;4.10;99.90
8820;DHT22;4446;50.876;4.736;2023-11-22T06:11:45;4.10;99.90
8820;DHT22;4446;50.876;4.736;2023-11-22T06:14:12;4.20;99.90
8820;DHT22;4446;50.876;4.736;2023-11-22T06:16:38;4.20;99.90
8820;DHT22;4446;50.876;4.736;2023-11-22T06:19:05;4.20;99.90
8820;DHT22;4446;50.876;4.736;2023-11-22T06:21:32;4.40;99.90
8820;DHT22;4446;50.876;4.736;2023-11-22T06:24:01;4.40;99.90
8820;DHT22;4446;50.876;4.736;2023-11-22T06:26:30;4.40;99.90
8820;DHT22;4446;50.876;4.736;2023-11-22T06:28:58;4.30;99.90
8820;DHT22;4446;50.876;4.736;2023-11-22T06:31:25;4.30;99.90
8820;DHT22;4446;50.876;4.736;2023-11-22T06:33:52;4.30;99.90
8820;DHT22;4446;50.876;4.736;2023-11-22T06:36:19;4.30;99.90
8820;DHT22;4446;50.876;4.736;2023-11-22T06:38:45;4.20;99.90
8820;DHT22;4446;50.876;4.736;2023-11-22T06:41:12;4.20;99.90
8820;DHT22;4446;50.876;4.736;2023-11-22T06:43:41;4.30;99.90
8820;DHT22;4446;50.876;4.736;2023-11-22T06:46:08;4.30;99.90
8820;DHT22;4446;50.876;4.736;2023-11-22T06:48:35;4.40;99.90
8820;DHT22;4446;50.876;4.736;2023-11-22T06:51:02;4.30;99.90
8820;DHT22;4446;50.876;4.736;2023-11-22T06:53:29;4.30;99.90
8820;DHT22;4446;50.876;4.736;2023-11-22T06:55:55;4.30;99.90
8820;DHT22;4446;50.876;4.736;2023-11-22T06:58:22;4.30;99.90
8820;DHT22;4446;50.876;4.736;2023-11-22T07:00:51;4.30;99.90
8820;DHT22;4446;50.876;4.736;2023-11-22T07:03:18;4.30;99.90
8820;DHT22;4446;50.876;4.736;2023-11-22T07:05:46;4.30;99.90
8820;DHT22;4446;50.876;4.736;2023-11-22T07:08:13;4.30;99.90
8820;DHT22;4446;50.876;4.736;2023-11-22T07:10:42;4.30;99.90
8820;DHT22;4446;50.876;4.736;2023-11-22T07:13:10;4.30;99.90
8820;DHT22;4446;50.876;4.736;2023-11-22T07:15:38;4.40;99.90
8820;DHT22;4446;50.876;4.736;2023-11-22T07:18:07;4.40;99.90
8820;DHT22;4446;50.876;4.736;2023-11-22T07:20:35;4.40;99.90
8820;DHT22;4446;50.876;4.736;2023-11-22T07:23:02;4.50;99.90
8820;DHT22;4446;50.876;4.736;2023-11-22T07:25:30;4.40;99.90
8820;DHT22;4446;50.876;4.736;2023-11-22T07:27:57;4.40;99.90
8820;DHT22;4446;50.876;4.736;2023-11-22T07:30:25;4.40;99.90
8820;DHT22;4446;50.876;4.736;2023-11-22T07:32:55;4.50;99.90
8820;DHT22;4446;50.876;4.736;2023-11-22T07:35:25;4.50;99.90
8820;DHT22;4446;50.876;4.736;2023-11-22T07:37:53;4.40;99.90
8820;DHT22;4446;50.876;4.736;2023-11-22T07:40:20;4.50;99.90
8820;DHT22;4446;50.876;4.736;2023-11-22T07:42:48;4.60;99.90
8820;DHT22;4446;50.876;4.736;2023-11-22T07:45:15;4.60;99.90
8820;DHT22;4446;50.876;4.736;2023-11-22T07:47:42;4.60;99.90
8820;DHT22;4446;50.876;4.736;2023-11-22T07:50:10;4.70;99.90
8820;DHT22;4446;50.876;4.736;2023-11-22T07:52:38;4.80;99.90
8820;DHT22;4446;50.876;4.736;2023-11-22T07:55:07;4.80;99.90
8820;DHT22;4446;50.876;4.736;2023-11-22T07:57:35;4.70;99.90
8820;DHT22;4446;50.876;4.736;2023-11-22T08:00:03;4.70;99.90
8820;DHT22;4446;50.876;4.736;2023-11-22T08:02:33;4.70;99.90
8820;DHT22;4446;50.876;4.736;2023-11-22T08:05:00;4.90;99.90
8820;DHT22;4446;50.876;4.736;2023-11-22T08:07:29;4.90;99.90
8820;DHT22;4446;50.876;4.736;2023-11-22T08:09:59;4.90;99.90
8820;DHT22;4446;50.876;4.736;2023-11-22T08:12:35;4.90;99.90
8820;DHT22;4446;50.876;4.736;2023-11-22T08:15:02;4.90;99.90
8820;DHT22;4446;50.876;4.736;2023-11-22T08:17:29;4.80;99.90
8820;DHT22;4446;50.876;4.736;2023-11-22T08:19:58;4.80;99.90
8820;DHT22;4446;50.876;4.736;2023-11-22T08:22:25;4.90;99.90
8820;DHT22;4446;50.876;4.736;2023-11-22T08:24:54;4.90;99.90
8820;DHT22;4446;50.876;4.736;2023-11-22T08:27:24;5.00;99.90
8820;DHT22;4446;50.876;4.736;2023-11-22T08:29:51;4.90;99.90
8820;DHT22;4446;50.876;4.736;2023-11-22T08:32:18;4.90;99.90
8820;DHT22;4446;50.876;4.736;2023-11-22T08:34:49;4.80;99.90
8820;DHT22;4446;50.876;4.736;2023-11-22T08:37:16;4.80;99.90
8820;DHT22;4446;50.876;4.736;2023-11-22T08:39:42;4.90;99.90
8820;DHT22;4446;50.876;4.736;2023-11-22T08:42:10;4.90;99.90
8820;DHT22;4446;50.876;4.736;2023-11-22T08:44:38;5.00;99.90
8820;DHT22;4446;50.876;4.736;2023-11-22T08:47:05;5.10;99.90
8820;DHT22;4446;50.876;4.736;2023-11-22T08:49:33;5.20;99.90
8820;DHT22;4446;50.876;4.736;2023-11-22T08:52:00;5.30;99.90
8820;DHT22;4446;50.876;4.736;2023-11-22T08:54:28;5.50;99.90
8820;DHT22;4446;50.876;4.736;2023-11-22T08:56:55;5.50;99.90
8820;DHT22;4446;50.876;4.736;2023-11-22T08:59:22;5.50;99.90
8820;DHT22;4446;50.876;4.736;2023-11-22T09:01:51;5.70;99.90
8820;DHT22;4446;50.876;4.736;2023-11-22T09:04:18;5.70;99.90
8820;DHT22;4446;50.876;4.736;2023-11-22T09:06:45;5.70;99.90
8820;DHT22;4446;50.876;4.736;2023-11-22T09:09:13;5.60;99.90
8820;DHT22;4446;50.876;4.736;2023-11-22T09:11:42;5.50;99.90
8820;DHT22;4446;50.876;4.736;2023-11-22T09:14:09;5.50;99.90
8820;DHT22;4446;50.876;4.736;2023-11-22T09:16:36;5.50;99.90
8820;DHT22;4446;50.876;4.736;2023-11-22T09:19:05;5.50;99.90
8820;DHT22;4446;50.876;4.736;2023-11-22T09:21:33;5.60;99.90
8820;DHT22;4446;50.876;4.736;2023-11-22T09:24:00;5.40;99.90
8820;DHT22;4446;50.876;4.736;2023-11-22T09:26:28;5.50;99.90
8820;DHT22;4446;50.876;4.736;2023-11-22T09:28:55;5.50;99.90
8820;DHT22;4446;50.876;4.736;2023-11-22T09:31:22;5.50;99.90
8820;DHT22;4446;50.876;4.736;2023-11-22T09:33:49;5.50;99.90
8820;DHT22;4446;50.876;4.736;2023-11-22T09:36:17;5.60;99.90
8820;DHT22;4446;50.876;4.736;2023-11-22T09:38:44;5.70;99.90
8820;DHT22;4446;50.876;4.736;2023-11-22T09:41:12;5.70;99.90
8820;DHT22;4446;50.876;4.736;2023-11-22T09:43:42;5.70;99.90
8820;DHT22;4446;50.876;4.736;2023-11-22T09:46:09;5.80;99.90
8820;DHT22;4446;50.876;4.736;2023-11-22T09:48:39;5.80;99.90
8820;DHT22;4446;50.876;4.736;2023-11-22T09:51:12;5.80;99.90
8820;DHT22;4446;50.876;4.736;2023-11-22T09:53:49;5.90;99.90
8820;DHT22;4446;50.876;4.736;2023-11-22T09:56:19;6.00;99.90
8820;DHT22;4446;50.876;4.736;2023-11-22T09:58:47;5.80;99.90
8820;DHT22;4446;50.876;4.736;2023-11-22T10:01:17;5.80;99.90
8820;DHT22;4446;50.876;4.736;2023-11-22T10:03:44;5.70;99.90
8820;DHT22;4446;50.876;4.736;2023-11-22T10:06:11;5.90;99.90
8820;DHT22;4446;50.876;4.736;2023-11-22T10:08:40;6.00;99.90
8820;DHT22;4446;50.876;4.736;2023-11-22T10:11:09;6.00;99.90
8820;DHT22;4446;50.876;4.736;2023-11-22T10:13:35;6.20;99.90
8820;DHT22;4446;50.876;4.736;2023-11-22T10:16:09;6.30;99.90
8820;DHT22;4446;50.876;4.736;2023-11-22T10:18:40;6.30;99.90
8820;DHT22;4446;50.876;4.736;2023-11-22T10:21:19;6.40;99.90
8820;DHT22;4446;50.876;4.736;2023-11-22T10:23:46;6.40;99.90
8820;DHT22;4446;50.876;4.736;2023-11-22T10:26:15;6.40;99.90
8820;DHT22;4446;50.876;4.736;2023-11-22T10:28:43;6.40;99.90
8820;DHT22;4446;50.876;4.736;2023-11-22T10:31:10;6.50;99.90
8820;DHT22;4446;50.876;4.736;2023-11-22T10:33:39;6.70;99.90
8820;DHT22;4446;50.876;4.736;2023-11-22T10:36:07;6.60;99.90
8820;DHT22;4446;50.876;4.736;2023-11-22T10:38:34;6.80;99.90
8820;DHT22;4446;50.876;4.736;2023-11-22T10:41:04;6.60;99.90
8820;DHT22;4446;50.876;4.736;2023-11-22T10:43:34;6.60;99.90
8820;DHT22;4446;50.876;4.736;2023-11-22T10:46:02;6.70;99.90
8820;DHT22;4446;50.876;4.736;2023-11-22T10:48:31;6.80;99.90
8820;DHT22;4446;50.876;4.736;2023-11-22T10:51:00;6.90;99.90
8820;DHT22;4446;50.876;4.736;2023-11-22T10:53:32;7.00;99.90
8820;DHT22;4446;50.876;4.736;2023-11-22T10:56:04;7.00;99.90
8820;DHT22;4446;50.876;4.736;2023-11-22T10:58:33;7.00;99.90
8820;DHT22;4446;50.876;4.736;2023-11-22T11:01:05;7.00;99.90
8820;DHT22;4446;50.876;4.736;2023-11-22T11:03:37;6.80;99.90
8820;DHT22;4446;50.876;4.736;2023-11-22T11:06:10;6.70;99.90
8820;DHT22;4446;50.876;4.736;2023-11-22T11:08:39;6.80;99.90
8820;DHT22;4446;50.876;4.736;2023-11-22T11:11:09;7.00;99.90
8820;DHT22;4446;50.876;4.736;2023-11-22T11:13:37;7.10;99.90
8820;DHT22;4446;50.876;4.736;2023-11-22T11:16:06;7.30;99.90
8820;DHT22;4446;50.876;4.736;2023-11-22T11:18:33;7.30;99.90
8820;DHT22;4446;50.876;4.736;2023-11-22T11:21:08;7.20;99.90
8820;DHT22;4446;50.876;4.736;2023-11-22T11:23:38;7.10;99.90
8820;DHT22;4446;50.876;4.736;2023-11-22T11:26:14;7.00;99.90
8820;DHT22;4446;50.876;4.736;2023-11-22T11:28:45;7.10;99.90
8820;DHT22;4446;50.876;4.736;2023-11-22T11:31:13;7.10;99.90
8820;DHT22;4446;50.876;4.736;2023-11-22T11:33:54;7.30;99.90
8820;DHT22;4446;50.876;4.736;2023-11-22T11:36:22;7.40;99.90
8820;DHT22;4446;50.876;4.736;2023-11-22T11:38:51;7.30;99.90
8820;DHT22;4446;50.876;4.736;2023-11-22T11:41:18;7.30;99.90
8820;DHT22;4446;50.876;4.736;2023-11-22T11:43:48;7.40;99.90
8820;DHT22;4446;50.876;4.736;2023-11-22T11:46:16;7.30;99.90
8820;DHT22;4446;50.876;4.736;2023-11-22T11:48:43;7.30;99.90
8820;DHT22;4446;50.876;4.736;2023-11-22T11:51:14;7.50;99.90
8820;DHT22;4446;50.876;4.736;2023-11-22T11:53:41;7.40;99.90
8820;DHT22;4446;50.876;4.736;2023-11-22T11:56:09;7.50;99.90
8820;DHT22;4446;50.876;4.736;2023-11-22T11:58:36;7.40;99.90
8820;DHT22;4446;50.876;4.736;2023-11-22T12:01:05;7.40;99.90
8820;DHT22;4446;50.876;4.736;2023-11-22T12:03:32;7.50;99.90
8820;DHT22;4446;50.876;4.736;2023-11-22T12:05:59;7.60;99.90
8820;DHT22;4446;50.876;4.736;2023-11-22T12:08:26;7.20;99.90
8820;DHT22;4446;50.876;4.736;2023-11-22T12:10:56;7.10;99.90
8820;DHT22;4446;50.876;4.736;2023-11-22T12:13:24;7.10;99.90
8820;DHT22;4446;50.876;4.736;2023-11-22T12:15:52;7.20;99.90
8820;DHT22;4446;50.876;4.736;2023-11-22T12:18:22;7.20;99.90
8820;DHT22;4446;50.876;4.736;2023-11-22T12:20:55;7.20;99.90
8820;DHT22;4446;50.876;4.736;2023-11-22T12:23:23;7.20;99.90
8820;DHT22;4446;50.876;4.736;2023-11-22T12:25:55;7.20;99.90
8820;DHT22;4446;50.876;4.736;2023-11-22T12:28:23;7.40;99.90
8820;DHT22;4446;50.876;4.736;2023-11-22T12:30:50;7.30;99.90
8820;DHT22;4446;50.876;4.736;2023-11-22T12:33:18;7.30;99.90
8820;DHT22;4446;50.876;4.736;2023-11-22T12:35:47;7.20;99.90
8820;DHT22;4446;50.876;4.736;2023-11-22T12:38:14;7.40;99.90
8820;DHT22;4446;50.876;4.736;2023-11-22T12:40:45;7.50;99.90
8820;DHT22;4446;50.876;4.736;2023-11-22T12:43:13;7.60;99.90
8820;DHT22;4446;50.876;4.736;2023-11-22T12:45:41;7.50;99.90
8820;DHT22;4446;50.876;4.736;2023-11-22T12:48:21;7.20;99.90
8820;DHT22;4446;50.876;4.736;2023-11-22T12:50:50;7.10;99.90
8820;DHT22;4446;50.876;4.736;2023-11-22T12:53:18;7.10;99.90
8820;DHT22;4446;50.876;4.736;2023-11-22T12:55:48;7.10;99.90
8820;DHT22;4446;50.876;4.736;2023-11-22T12:58:16;7.00;99.90
8820;DHT22;4446;50.876;4.736;2023-11-22T13:00:44;7.00;99.90
8820;DHT22;4446;50.876;4.736;2023-11-22T13:03:11;6.90;99.90
8820;DHT22;4446;50.876;4.736;2023-11-22T13:05:39;6.90;99.90
8820;DHT22;4446;50.876;4.736;2023-11-22T13:08:12;6.90;99.90
8820;DHT22;4446;50.876;4.736;2023-11-22T13:10:40;6.70;99.90
8820;DHT22;4446;50.876;4.736;2023-11-22T13:13:07;6.60;99.90
8820;DHT22;4446;50.876;4.736;2023-11-22T13:15:35;6.50;99.90
8820;DHT22;4446;50.876;4.736;2023-11-22T13:18:02;6.50;99.90
8820;DHT22;4446;50.876;4.736;2023-11-22T13:20:32;6.50;99.90
8820;DHT22;4446;50.876;4.736;2023-11-22T13:22:59;6.50;99.90
8820;DHT22;4446;50.876;4.736;2023-11-22T13:25:28;6.50;99.90
8820;DHT22;4446;50.876;4.736;2023-11-22T13:27:55;6.50;99.90
8820;DHT22;4446;50.876;4.736;2023-11-22T13:30:23;6.50;99.90
8820;DHT22;4446;50.876;4.736;2023-11-22T13:32:51;6.70;99.90
8820;DHT22;4446;50.876;4.736;2023-11-22T13:35:19;6.70;99.90
8820;DHT22;4446;50.876;4.736;2023-11-22T13:37:48;6.90;99.90
8820;DHT22;4446;50.876;4.736;2023-11-22T13:40:16;7.10;99.90
8820;DHT22;4446;50.876;4.736;2023-11-22T13:42:49;7.20;99.90
8820;DHT22;4446;50.876;4.736;2023-11-22T13:45:19;7.30;99.90
8820;DHT22;4446;50.876;4.736;2023-11-22T13:47:47;7.30;99.90
8820;DHT22;4446;50.876;4.736;2023-11-22T13:50:15;7.50;99.90
8820;DHT22;4446;50.876;4.736;2023-11-22T13:52:44;7.70;99.90
8820;DHT22;4446;50.876;4.736;2023-11-22T13:55:12;7.70;99.90
8820;DHT22;4446;50.876;4.736;2023-11-22T13:57:39;7.70;99.90
8820;DHT22;4446;50.876;4.736;2023-11-22T14:00:09;7.60;99.90
8820;DHT22;4446;50.876;4.736;2023-11-22T14:02:38;7.60;99.90
8820;DHT22;4446;50.876;4.736;2023-11-22T14:05:06;7.50;99.90
8820;DHT22;4446;50.876;4.736;2023-11-22T14:07:35;7.40;99.90
8820;DHT22;4446;50.876;4.736;2023-11-22T14:10:03;7.30;99.90
8820;DHT22;4446;50.876;4.736;2023-11-22T14:12:32;7.30;99.90
8820;DHT22;4446;50.876;4.736;2023-11-22T14:14:59;7.30;99.90
8820;DHT22;4446;50.876;4.736;2023-11-22T14:17:28;7.30;99.90
8820;DHT22;4446;50.876;4.736;2023-11-22T14:19:55;7.40;99.90
8820;DHT22;4446;50.876;4.736;2023-11-22T14:22:22;7.50;99.90
8820;DHT22;4446;50.876;4.736;2023-11-22T14:24:50;7.50;99.90
8820;DHT22;4446;50.876;4.736;2023-11-22T14:27:17;7.50;99.90
8820;DHT22;4446;50.876;4.736;2023-11-22T14:29:45;7.50;99.90
8820;DHT22;4446;50.876;4.736;2023-11-22T14:32:14;7.60;99.90
8820;DHT22;4446;50.876;4.736;2023-11-22T14:34:43;7.60;99.90
8820;DHT22;4446;50.876;4.736;2023-11-22T14:37:10;7.50;99.90
8820;DHT22;4446;50.876;4.736;2023-11-22T14:39:37;7.50;99.90
8820;DHT22;4446;50.876;4.736;2023-11-22T14:42:04;7.50;99.90
8820;DHT22;4446;50.876;4.736;2023-11-22T14:44:33;7.50;99.90
8820;DHT22;4446;50.876;4.736;2023-11-22T14:47:00;7.50;99.90
8820;DHT22;4446;50.876;4.736;2023-11-22T14:49:31;7.50;99.90
8820;DHT22;4446;50.876;4.736;2023-11-22T14:51:59;7.40;99.90
8820;DHT22;4446;50.876;4.736;2023-11-22T14:54:28;7.40;99.90
8820;DHT22;4446;50.876;4.736;2023-11-22T14:56:55;7.30;99.90
8820;DHT22;4446;50.876;4.736;2023-11-22T14:59:26;7.20;99.90
8820;DHT22;4446;50.876;4.736;2023-11-22T15:01:54;7.30;99.90
8820;DHT22;4446;50.876;4.736;2023-11-22T15:04:22;7.20;99.90
8820;DHT22;4446;50.876;4.736;2023-11-22T15:06:49;7.20;99.90
8820;DHT22;4446;50.876;4.736;2023-11-22T15:09:17;7.20;99.90
8820;DHT22;4446;50.876;4.736;2023-11-22T15:11:46;7.10;99.90
8820;DHT22;4446;50.876;4.736;2023-11-22T15:14:13;7.00;99.90
8820;DHT22;4446;50.876;4.736;2023-11-22T15:16:40;7.10;99.90
8820;DHT22;4446;50.876;4.736;2023-11-22T15:19:07;7.10;99.90
8820;DHT22;4446;50.876;4.736;2023-11-22T15:21:35;7.10;99.90
8820;DHT22;4446;50.876;4.736;2023-11-22T15:24:02;7.10;99.90
8820;DHT22;4446;50.876;4.736;2023-11-22T15:26:31;7.00;99.90
8820;DHT22;4446;50.876;4.736;2023-11-22T15:29:00;7.00;99.90
8820;DHT22;4446;50.876;4.736;2023-11-22T15:31:27;7.00;99.90
8820;DHT22;4446;50.876;4.736;2023-11-22T15:33:54;7.00;99.90
8820;DHT22;4446;50.876;4.736;2023-11-22T15:36:21;7.00;99.90
8820;DHT22;4446;50.876;4.736;2023-11-22T15:38:48;6.90;99.90
8820;DHT22;4446;50.876;4.736;2023-11-22T15:41:15;6.90;99.90
8820;DHT22;4446;50.876;4.736;2023-11-22T15:43:44;6.90;99.90
8820;DHT22;4446;50.876;4.736;2023-11-22T15:46:12;6.80;99.90
8820;DHT22;4446;50.876;4.736;2023-11-22T15:48:40;6.80;99.90
8820;DHT22;4446;50.876;4.736;2023-11-22T15:51:07;6.70;99.90
8820;DHT22;4446;50.876;4.736;2023-11-22T15:53:37;6.70;99.90
8820;DHT22;4446;50.876;4.736;2023-11-22T15:56:04;6.60;99.90
8820;DHT22;4446;50.876;4.736;2023-11-22T15:58:34;6.70;99.90
8820;DHT22;4446;50.876;4.736;2023-11-22T16:01:02;6.70;99.90
8820;DHT22;4446;50.876;4.736;2023-11-22T16:03:30;6.60;99.90
8820;DHT22;4446;50.876;4.736;2023-11-22T16:05:58;6.70;99.90
8820;DHT22;4446;50.876;4.736;2023-11-22T16:08:26;6.70;99.90
8820;DHT22;4446;50.876;4.736;2023-11-22T16:10:53;6.70;99.90
8820;DHT22;4446;50.876;4.736;2023-11-22T16:13:20;6.70;99.90
8820;DHT22;4446;50.876;4.736;2023-11-22T16:15:47;6.70;99.90
8820;DHT22;4446;50.876;4.736;2023-11-22T16:18:17;6.60;99.90
8820;DHT22;4446;50.876;4.736;2023-11-22T16:20:48;6.60;99.90
8820;DHT22;4446;50.876;4.736;2023-11-22T16:23:15;6.60;99.90
8820;DHT22;4446;50.876;4.736;2023-11-22T16:25:42;6.60;99.90